Time;durP1;ratioP1;P1;durP2;ratioP2;P2;SDS_P1;SDS_P2;PMS_P1;PMS_P2;Temp;Humidity;BMP_temperature;BMP_pressure;BME280_temperature;BME280_humidity;BME280_pressure;Samples;Min_cycle;Max_cycle;Signal;HPM_P1;HPM_P2
2022/11/09 00:00:42;;;;;;;5.10;2.28;;;11.60;99.90;;;;;;5114296;27;20087;-76
2022/11/09 00:03:09;;;;;;;3.97;1.10;;;11.70;99.90;;;;;;5141279;27;20042;-75
2022/11/09 00:05:34;;;;;;;5.22;1.23;;;11.50;99.90;;;;;;5098657;27;20039;-76
2022/11/09 00:08:00;;;;;;;4.57;1.23;;;11.50;99.90;;;;;;5128490;27;20035;-76
2022/11/09 00:10:26;;;;;;;2.90;1.20;;;11.90;99.90;;;;;;5126380;27;20074;-76
2022/11/09 00:12:51;;;;;;;2.90;1.20;;;11.60;99.90;;;;;;5127266;27;20315;-76
2022/11/09 00:15:17;;;;;;;3.65;1.30;;;11.60;99.90;;;;;;5104532;28;20028;-76
2022/11/09 00:17:43;;;;;;;2.67;0.82;;;11.60;99.90;;;;;;5105094;27;20063;-75
2022/11/09 00:20:09;;;;;;;3.30;1.13;;;11.60;99.90;;;;;;5108340;27;20426;-75
2022/11/09 00:22:35;;;;;;;5.32;1.45;;;11.60;99.90;;;;;;5132118;27;20085;-76
2022/11/09 00:25:01;;;;;;;4.57;1.63;;;11.60;99.90;;;;;;5109625;28;20445;-76
2022/11/09 00:27:26;;;;;;;3.33;1.15;;;11.50;99.90;;;;;;5122422;27;20038;-77
2022/11/09 00:29:52;;;;;;;4.78;1.42;;;12.10;99.90;;;;;;5128616;27;20039;-75
2022/11/09 00:32:18;;;;;;;7.68;1.80;;;12.70;99.90;;;;;;5096012;28;20039;-75
2022/11/09 00:34:43;;;;;;;3.25;1.27;;;11.50;99.90;;;;;;5119741;27;20109;-75
2022/11/09 00:37:09;;;;;;;5.88;1.52;;;12.30;99.90;;;;;;5126306;27;20107;-76
2022/11/09 00:39:35;;;;;;;3.33;1.20;;;12.30;99.90;;;;;;5126760;27;20042;-75
2022/11/09 00:42:00;;;;;;;2.72;1.08;;;11.60;99.90;;;;;;5124183;27;20067;-74
2022/11/09 00:44:28;;;;;;;5.03;1.40;;;11.60;99.90;;;;;;5128364;27;20063;-73
2022/11/09 00:46:57;;;;;;;5.82;1.42;;;11.70;99.90;;;;;;5120413;27;20043;-75
2022/11/09 00:49:22;;;;;;;4.85;1.63;;;11.60;99.90;;;;;;5119116;27;20055;-75
2022/11/09 00:51:48;;;;;;;6.20;1.60;;;11.60;99.90;;;;;;5124187;27;20038;-76
2022/11/09 00:54:14;;;;;;;7.57;1.90;;;11.60;99.90;;;;;;5118954;27;20399;-75
2022/11/09 00:56:39;;;;;;;7.20;2.00;;;11.60;99.90;;;;;;5107967;27;20031;-75
2022/11/09 00:59:05;;;;;;;4.57;1.73;;;11.70;99.90;;;;;;5118979;27;20052;-75
2022/11/09 01:01:31;;;;;;;6.15;1.85;;;11.70;99.90;;;;;;5107976;27;20038;-75
2022/11/09 01:03:56;;;;;;;2.92;1.58;;;11.90;99.90;;;;;;5120152;27;20044;-76
2022/11/09 01:06:24;;;;;;;5.30;2.05;;;11.70;99.90;;;;;;5124797;27;20078;-75
2022/11/09 01:08:50;;;;;;;5.20;1.55;;;11.70;99.90;;;;;;5119308;27;20047;-76
2022/11/09 01:11:18;;;;;;;7.72;2.20;;;11.80;99.90;;;;;;5117707;27;20031;-76
2022/11/09 01:13:44;;;;;;;7.30;2.30;;;12.80;99.90;;;;;;5126666;27;20050;-75
2022/11/09 01:16:13;;;;;;;9.82;1.83;;;11.70;99.90;;;;;;5118174;27;20116;-75
2022/11/09 01:18:40;;;;;;;4.18;1.70;;;11.70;99.90;;;;;;5127442;27;20039;-74
2022/11/09 01:21:08;;;;;;;5.25;2.03;;;11.70;99.90;;;;;;5123408;27;20040;-76
2022/11/09 01:23:35;;;;;;;4.72;1.52;;;11.70;99.90;;;;;;5125516;27;20086;-76
2022/11/09 01:26:06;;;;;;;6.22;1.60;;;11.80;99.90;;;;;;5119703;27;20110;-75
2022/11/09 01:28:32;;;;;;;6.53;1.98;;;11.80;99.90;;;;;;5107144;28;20592;-77
2022/11/09 01:31:03;;;;;;;6.47;1.60;;;11.80;99.90;;;;;;5123383;27;20105;-74
2022/11/09 01:33:29;;;;;;;8.40;2.05;;;11.80;99.90;;;;;;5120400;27;20059;-76
2022/11/09 01:36:01;;;;;;;8.20;2.40;;;12.70;99.90;;;;;;5147254;27;20451;-76
2022/11/09 01:38:27;;;;;;;9.57;2.00;;;11.90;99.90;;;;;;5103088;27;20116;-75
2022/11/09 01:40:52;;;;;;;7.10;1.95;;;11.90;99.90;;;;;;5123857;27;20062;-74
2022/11/09 01:43:23;;;;;;;11.18;3.13;;;11.90;99.90;;;;;;5144122;27;20087;-76
2022/11/09 01:46:01;;;;;;;8.82;2.00;;;11.90;99.90;;;;;;5123758;27;20486;-76
2022/11/09 01:48:32;;;;;;;2.13;1.58;;;12.00;99.90;;;;;;5125629;27;20038;-76
2022/11/09 01:51:04;;;;;;;5.18;1.80;;;12.00;99.90;;;;;;5126658;27;20050;-75
2022/11/09 01:53:36;;;;;;;5.88;2.13;;;12.00;99.90;;;;;;5125766;27;20050;-76
2022/11/09 01:56:05;;;;;;;9.45;2.33;;;12.00;99.90;;;;;;5122755;27;20035;-76
2022/11/09 01:58:43;;;;;;;7.00;1.75;;;12.00;99.90;;;;;;5125886;27;20047;-75
2022/11/09 02:01:10;;;;;;;6.85;1.63;;;12.00;99.90;;;;;;5122932;27;20035;-76
2022/11/09 02:03:47;;;;;;;7.32;2.22;;;12.00;99.90;;;;;;5112098;27;20051;-76
2022/11/09 02:06:16;;;;;;;8.38;2.28;;;12.00;99.90;;;;;;5112477;27;20058;-74
2022/11/09 02:08:43;;;;;;;8.82;2.40;;;12.00;99.90;;;;;;5153958;27;20046;-72
2022/11/09 02:11:11;;;;;;;7.00;1.95;;;12.00;99.90;;;;;;5117352;27;20509;-75
2022/11/09 02:13:40;;;;;;;8.38;1.90;;;12.00;99.90;;;;;;5135289;27;20043;-76
2022/11/09 02:16:09;;;;;;;9.57;2.08;;;12.40;99.90;;;;;;5121096;27;20031;-76
2022/11/09 02:18:37;;;;;;;7.93;1.98;;;12.00;99.90;;;;;;5116685;27;20498;-77
2022/11/09 02:21:03;;;;;;;6.70;1.67;;;11.90;99.90;;;;;;5146384;27;20046;-75
2022/11/09 02:23:28;;;;;;;10.93;1.80;;;11.90;99.90;;;;;;5121517;27;20042;-75
2022/11/09 02:26:08;;;;;;;8.75;2.15;;;11.90;99.90;;;;;;5153054;27;20042;-75
2022/11/09 02:28:37;;;;;;;5.43;1.73;;;11.90;99.90;;;;;;5099669;27;20042;-75
2022/11/09 02:31:05;;;;;;;7.35;2.35;;;11.90;99.90;;;;;;5114270;27;20074;-75
2022/11/09 02:34:04;;;;;;;5.28;1.80;;;11.90;99.90;;;;;;5146732;27;20110;-75
2022/11/09 02:36:30;;;;;;;7.18;1.58;;;11.90;99.90;;;;;;5113827;27;20054;-75
2022/11/09 02:38:56;;;;;;;12.88;2.22;;;11.90;99.90;;;;;;5111573;27;20043;-71
2022/11/09 02:41:23;;;;;;;11.65;2.05;;;11.90;99.90;;;;;;5144320;27;20454;-75
2022/11/09 02:43:52;;;;;;;8.45;1.98;;;11.90;99.90;;;;;;5134528;27;20043;-76
2022/11/09 02:46:29;;;;;;;5.13;1.90;;;11.80;99.90;;;;;;5126487;27;20568;-75
2022/11/09 02:48:55;;;;;;;8.93;1.88;;;11.80;99.90;;;;;;5125080;27;20035;-76
2022/11/09 02:51:21;;;;;;;11.40;1.83;;;12.60;99.90;;;;;;5125762;27;20037;-75
2022/11/09 02:53:47;;;;;;;10.77;2.60;;;11.80;99.90;;;;;;5127045;27;20038;-75
2022/11/09 02:56:12;;;;;;;9.95;1.95;;;11.90;99.90;;;;;;5128082;27;20050;-75
2022/11/09 02:58:38;;;;;;;10.27;2.28;;;12.50;99.90;;;;;;5133431;27;20062;-75
2022/11/09 03:01:04;;;;;;;9.27;1.67;;;12.00;99.90;;;;;;5142889;27;20046;-76
2022/11/09 03:03:29;;;;;;;10.52;1.45;;;11.70;99.90;;;;;;5110726;27;20077;-75
2022/11/09 03:05:55;;;;;;;5.28;1.55;;;11.70;99.90;;;;;;5101971;27;20512;-75
2022/11/09 03:08:21;;;;;;;8.20;2.08;;;11.70;99.90;;;;;;5127035;27;20526;-76
2022/11/09 03:10:46;;;;;;;12.25;2.45;;;11.70;99.90;;;;;;5127095;27;20603;-75
2022/11/09 03:13:12;;;;;;;8.55;2.35;;;11.60;99.90;;;;;;5141150;27;20055;-76
2022/11/09 03:15:39;;;;;;;8.82;1.55;;;11.60;99.90;;;;;;5144652;27;20046;-74
2022/11/09 03:18:05;;;;;;;9.98;2.05;;;11.60;99.90;;;;;;5119267;27;20043;-76
2022/11/09 03:20:30;;;;;;;9.32;1.98;;;11.70;99.90;;;;;;5127549;27;20031;-76
2022/11/09 03:22:58;;;;;;;9.00;1.50;;;11.60;99.90;;;;;;5101613;27;20039;-74
2022/11/09 03:25:24;;;;;;;7.30;1.67;;;11.70;99.90;;;;;;5126995;27;20042;-75
2022/11/09 03:27:50;;;;;;;8.15;1.63;;;11.60;99.90;;;;;;5133340;27;20112;-75
2022/11/09 03:30:17;;;;;;;12.15;2.25;;;11.60;99.90;;;;;;5127275;27;20118;-75
2022/11/09 03:32:43;;;;;;;7.47;1.67;;;11.60;99.90;;;;;;5145933;27;20484;-76
2022/11/09 03:35:09;;;;;;;11.52;2.10;;;11.60;99.90;;;;;;5141567;27;20122;-75
2022/11/09 03:37:42;;;;;;;6.78;1.90;;;11.60;99.90;;;;;;5131206;27;20115;-73
2022/11/09 03:40:12;;;;;;;5.47;1.50;;;11.60;99.90;;;;;;5123612;27;20502;-74
2022/11/09 03:42:43;;;;;;;13.85;2.22;;;12.60;99.90;;;;;;5113743;27;20050;-75
2022/11/09 03:45:09;;;;;;;10.73;2.05;;;11.50;99.90;;;;;;5123726;27;20149;-75
2022/11/09 03:47:35;;;;;;;10.55;2.50;;;11.50;99.90;;;;;;5105545;27;20495;-74
2022/11/09 03:50:00;;;;;;;10.88;2.20;;;11.60;99.90;;;;;;5140934;27;20035;-75
2022/11/09 03:52:26;;;;;;;12.88;2.00;;;11.50;99.90;;;;;;5125907;27;20077;-76
2022/11/09 03:54:51;;;;;;;10.27;1.88;;;12.50;99.90;;;;;;5111810;27;20043;-74
2022/11/09 03:57:17;;;;;;;11.60;2.28;;;12.30;99.90;;;;;;5145348;27;20070;-75
2022/11/09 03:59:43;;;;;;;10.35;1.75;;;12.30;99.90;;;;;;5113382;27;20317;-76
2022/11/09 04:02:08;;;;;;;11.85;2.17;;;11.60;99.90;;;;;;5123998;27;20139;-75
2022/11/09 04:04:34;;;;;;;13.35;2.65;;;12.50;99.90;;;;;;5121941;27;20054;-75
2022/11/09 04:06:59;;;;;;;14.82;1.70;;;11.60;99.90;;;;;;5130182;27;20473;-75
2022/11/09 04:09:25;;;;;;;8.88;2.00;;;11.50;99.90;;;;;;5122565;27;20056;-75
2022/11/09 04:11:50;;;;;;;13.07;1.80;;;11.50;99.90;;;;;;5129821;27;20111;-76
2022/11/09 04:14:16;;;;;;;8.45;1.52;;;11.50;99.90;;;;;;5122831;27;20059;-76
2022/11/09 04:16:42;;;;;;;7.35;1.75;;;11.50;99.90;;;;;;5128710;27;20134;-75
2022/11/09 04:19:16;;;;;;;4.63;1.52;;;11.40;99.90;;;;;;5108664;27;20041;-73
2022/11/09 04:21:41;;;;;;;7.40;1.65;;;11.50;99.90;;;;;;5123810;27;20525;-76
2022/11/09 04:24:07;;;;;;;8.48;2.00;;;12.60;99.90;;;;;;5124247;27;20043;-75
2022/11/09 04:26:32;;;;;;;10.90;1.98;;;11.40;99.90;;;;;;5143747;27;20039;-76
2022/11/09 04:28:58;;;;;;;8.20;1.95;;;11.50;99.90;;;;;;5124421;27;20327;-76
2022/11/09 04:31:24;;;;;;;8.82;2.15;;;11.40;99.90;;;;;;5126638;27;20034;-76
2022/11/09 04:33:50;;;;;;;12.35;2.17;;;11.40;99.90;;;;;;5107963;27;20039;-76
2022/11/09 04:36:16;;;;;;;8.15;1.42;;;11.40;99.90;;;;;;5126116;27;20055;-75
2022/11/09 04:38:42;;;;;;;8.70;1.70;;;11.40;99.90;;;;;;5129667;27;20049;-75
2022/11/09 04:41:08;;;;;;;7.95;1.75;;;11.40;99.90;;;;;;5107792;27;20062;-75
2022/11/09 04:43:34;;;;;;;7.72;1.63;;;11.40;99.90;;;;;;5145862;27;20053;-75
2022/11/09 04:46:01;;;;;;;10.40;2.42;;;12.30;99.90;;;;;;5122345;27;20047;-76
2022/11/09 04:48:28;;;;;;;10.20;1.60;;;11.40;99.90;;;;;;5118565;27;20535;-75
2022/11/09 04:51:05;;;;;;;6.25;1.23;;;11.70;99.90;;;;;;5124367;27;20561;-75
2022/11/09 04:53:32;;;;;;;10.15;2.38;;;11.40;99.90;;;;;;5134420;27;20117;-76
2022/11/09 04:55:58;;;;;;;9.35;2.30;;;11.50;99.90;;;;;;5124149;27;20080;-75
2022/11/09 04:58:24;;;;;;;9.18;2.33;;;11.60;99.90;;;;;;5108507;27;20421;-76
2022/11/09 05:00:50;;;;;;;8.45;1.85;;;11.50;99.90;;;;;;5144840;27;20050;-76
2022/11/09 05:03:16;;;;;;;13.63;2.03;;;11.60;99.90;;;;;;5122781;27;20042;-76
2022/11/09 05:05:41;;;;;;;9.82;2.72;;;11.60;99.90;;;;;;5144754;27;20049;-75
2022/11/09 05:08:09;;;;;;;14.30;1.90;;;11.50;99.90;;;;;;5104789;27;20118;-76
2022/11/09 05:10:36;;;;;;;7.53;1.70;;;11.60;99.90;;;;;;5146348;27;20043;-76
2022/11/09 05:13:07;;;;;;;10.13;1.90;;;11.50;99.90;;;;;;5128939;27;20083;-76
2022/11/09 05:15:34;;;;;;;7.75;2.08;;;11.60;99.90;;;;;;5106410;27;20542;-76
2022/11/09 05:18:03;;;;;;;8.68;1.48;;;11.60;99.90;;;;;;5106184;27;20031;-76
2022/11/09 05:20:29;;;;;;;7.43;2.10;;;11.60;99.90;;;;;;5107695;27;20394;-75
2022/11/09 05:25:42;;;;;;;5.90;1.55;;;11.60;99.90;;;;;;5126708;27;20050;-76
2022/11/09 05:28:08;;;;;;;9.75;1.75;;;11.90;99.90;;;;;;5122426;27;20034;-76
2022/11/09 05:30:33;;;;;;;7.88;1.80;;;11.60;99.90;;;;;;5119169;27;20486;-76
2022/11/09 05:32:59;;;;;;;7.95;2.22;;;11.60;99.90;;;;;;5126716;27;20035;-76
2022/11/09 05:35:25;;;;;;;8.25;2.10;;;11.60;99.90;;;;;;5119051;28;20501;-76
2022/11/09 05:37:51;;;;;;;9.75;1.73;;;11.60;99.90;;;;;;5144509;27;20122;-76
2022/11/09 05:40:18;;;;;;;7.85;2.55;;;11.60;99.90;;;;;;5139776;27;20118;-76
2022/11/09 05:42:44;;;;;;;7.40;2.03;;;11.60;99.90;;;;;;5107731;27;20054;-76
2022/11/09 05:45:12;;;;;;;8.73;2.03;;;11.60;99.90;;;;;;5121930;27;20046;-76
2022/11/09 05:47:39;;;;;;;10.27;2.25;;;11.60;99.90;;;;;;5115096;27;20472;-76
2022/11/09 05:50:07;;;;;;;10.20;2.42;;;11.60;99.90;;;;;;5122238;27;20042;-76
2022/11/09 05:52:33;;;;;;;9.13;1.88;;;11.00;99.90;;;;;;5139267;27;20443;-75
2022/11/09 05:54:59;;;;;;;15.52;2.20;;;11.50;99.90;;;;;;5144829;27;20066;-76
2022/11/09 05:57:25;;;;;;;13.30;2.33;;;11.50;99.90;;;;;;5123204;27;20083;-75
2022/11/09 05:59:51;;;;;;;14.73;2.85;;;11.50;99.90;;;;;;5123837;27;20035;-75
2022/11/09 06:02:17;;;;;;;12.63;2.22;;;11.50;99.90;;;;;;5121132;27;20053;-76
2022/11/09 06:04:42;;;;;;;10.55;1.90;;;11.50;99.90;;;;;;5142646;27;20047;-76
2022/11/09 06:07:08;;;;;;;9.73;2.45;;;11.50;99.90;;;;;;5122729;27;20039;-75
2022/11/09 06:09:34;;;;;;;7.25;1.85;;;11.50;99.90;;;;;;5106474;27;20042;-75
2022/11/09 06:11:59;;;;;;;8.40;2.03;;;11.50;99.90;;;;;;5103330;27;20047;-75
2022/11/09 06:14:25;;;;;;;7.97;2.10;;;11.40;99.90;;;;;;5141949;27;20042;-75
2022/11/09 06:16:51;;;;;;;8.52;2.20;;;12.40;99.90;;;;;;5123496;27;20554;-74
2022/11/09 06:19:16;;;;;;;10.70;1.98;;;11.40;99.90;;;;;;5126054;27;20054;-75
2022/11/09 06:21:42;;;;;;;8.93;2.15;;;11.40;99.90;;;;;;5142195;27;20039;-75
2022/11/09 06:24:09;;;;;;;6.00;1.67;;;11.40;99.90;;;;;;5105654;27;20479;-75
2022/11/09 06:26:35;;;;;;;10.65;2.03;;;11.40;99.90;;;;;;5106217;27;20146;-75
2022/11/09 06:29:01;;;;;;;8.88;1.88;;;11.30;99.90;;;;;;5121053;27;20100;-75
2022/11/09 06:31:27;;;;;;;9.82;1.95;;;11.30;99.90;;;;;;5123712;27;20474;-75
2022/11/09 06:33:53;;;;;;;13.80;1.48;;;11.30;99.90;;;;;;5104889;27;20051;-75
2022/11/09 06:36:18;;;;;;;8.02;1.60;;;11.30;99.90;;;;;;5146718;27;20043;-75
2022/11/09 06:38:48;;;;;;;7.43;1.45;;;11.30;99.90;;;;;;5119166;27;20031;-75
2022/11/09 06:41:14;;;;;;;6.93;1.50;;;11.30;99.90;;;;;;5104816;27;20403;-75
2022/11/09 06:43:40;;;;;;;6.07;1.90;;;11.20;99.90;;;;;;5110386;27;20055;-75
2022/11/09 06:46:06;;;;;;;9.35;3.33;;;11.20;99.90;;;;;;5123411;27;20058;-75
2022/11/09 06:48:32;;;;;;;7.18;1.88;;;12.10;99.90;;;;;;5112920;27;20093;-75
2022/11/09 06:51:02;;;;;;;7.03;2.03;;;11.50;99.90;;;;;;5123013;27;20513;-75
2022/11/09 06:53:30;;;;;;;8.98;2.03;;;11.20;99.90;;;;;;5123345;27;20039;-75
2022/11/09 06:56:00;;;;;;;13.00;1.60;;;11.20;99.90;;;;;;5123511;27;20077;-75
2022/11/09 06:58:26;;;;;;;7.25;1.88;;;12.00;99.90;;;;;;5126535;27;20042;-75
2022/11/09 07:00:52;;;;;;;8.10;1.58;;;11.20;99.90;;;;;;5108539;27;20449;-75
2022/11/09 07:03:20;;;;;;;11.43;2.92;;;11.30;99.90;;;;;;5144094;27;20387;-74
2022/11/09 07:05:47;;;;;;;13.27;2.92;;;11.40;99.90;;;;;;5146406;27;20052;-75
2022/11/09 07:08:14;;;;;;;10.27;2.17;;;11.20;99.90;;;;;;5148870;27;20074;-75
2022/11/09 07:10:40;;;;;;;7.75;1.85;;;11.10;99.90;;;;;;5129288;27;20039;-74
2022/11/09 07:13:06;;;;;;;12.77;2.03;;;11.20;99.90;;;;;;5125546;27;20506;-75
2022/11/09 07:15:33;;;;;;;10.15;1.67;;;11.20;99.90;;;;;;5125582;27;20385;-74
2022/11/09 07:18:00;;;;;;;11.77;2.40;;;11.20;99.90;;;;;;5143736;27;20044;-75
2022/11/09 07:20:27;;;;;;;13.30;1.95;;;11.20;99.90;;;;;;5144382;27;20113;-75
2022/11/09 07:22:52;;;;;;;7.85;1.88;;;11.10;99.90;;;;;;5125796;27;20054;-74
2022/11/09 07:25:18;;;;;;;9.20;1.52;;;11.10;99.90;;;;;;5107620;27;20035;-75
2022/11/09 07:27:44;;;;;;;14.25;1.80;;;11.10;99.90;;;;;;5110775;27;20051;-75
2022/11/09 07:30:10;;;;;;;13.75;2.30;;;11.10;99.90;;;;;;5105767;27;20393;-74
2022/11/09 07:32:37;;;;;;;13.63;3.38;;;11.10;99.90;;;;;;5130342;27;20581;-75
2022/11/09 07:35:03;;;;;;;13.75;2.72;;;11.10;99.90;;;;;;5139997;27;20047;-75
2022/11/09 07:37:31;;;;;;;10.63;1.80;;;11.10;99.90;;;;;;5108991;27;20463;-75
2022/11/09 07:39:56;;;;;;;5.95;1.15;;;12.10;99.90;;;;;;5126232;27;20483;-75
2022/11/09 07:42:23;;;;;;;8.98;1.80;;;11.00;99.90;;;;;;5143518;27;20051;-75
2022/11/09 07:44:49;;;;;;;14.82;2.30;;;11.10;99.90;;;;;;5125935;27;20042;-75
2022/11/09 07:47:16;;;;;;;11.32;1.98;;;11.10;99.90;;;;;;5117152;27;20084;-75
2022/11/09 07:49:42;;;;;;;6.75;1.58;;;11.40;99.90;;;;;;5108452;27;20066;-75
2022/11/09 07:52:08;;;;;;;11.40;1.60;;;11.10;99.90;;;;;;5124146;27;20482;-75
2022/11/09 07:54:34;;;;;;;11.95;2.00;;;11.10;99.90;;;;;;5112873;27;20043;-75
2022/11/09 07:57:00;;;;;;;7.63;1.52;;;11.20;99.90;;;;;;5108352;27;20081;-76
2022/11/09 07:59:25;;;;;;;10.90;2.28;;;12.10;99.90;;;;;;5142796;27;20063;-75
2022/11/09 08:01:51;;;;;;;9.85;2.35;;;11.20;99.90;;;;;;5125900;27;21168;-75
2022/11/09 08:04:17;;;;;;;11.95;2.55;;;11.20;99.90;;;;;;5107900;27;20039;-75
2022/11/09 08:06:44;;;;;;;13.98;2.72;;;12.20;99.90;;;;;;5125602;27;20054;-76
2022/11/09 08:09:09;;;;;;;13.75;2.40;;;11.20;99.90;;;;;;5124131;27;20117;-75
2022/11/09 08:11:35;;;;;;;9.95;2.25;;;11.30;99.90;;;;;;5124233;27;20126;-75
2022/11/09 08:14:01;;;;;;;8.73;2.53;;;11.90;99.90;;;;;;5143935;27;20125;-75
2022/11/09 08:16:26;;;;;;;12.15;2.20;;;11.30;99.90;;;;;;5123942;27;20039;-75
2022/11/09 08:18:52;;;;;;;7.60;2.65;;;11.40;99.90;;;;;;5125351;27;20043;-75
2022/11/09 08:21:18;;;;;;;13.02;2.20;;;12.30;99.90;;;;;;5143831;27;20039;-75
2022/11/09 08:23:44;;;;;;;7.53;1.83;;;11.80;99.90;;;;;;5125582;27;20041;-75
2022/11/09 08:26:10;;;;;;;17.33;2.00;;;11.40;99.90;;;;;;5116292;27;20399;-75
2022/11/09 08:28:36;;;;;;;8.23;1.83;;;11.40;99.90;;;;;;5143382;27;20030;-76
2022/11/09 08:31:05;;;;;;;13.63;1.95;;;11.50;99.90;;;;;;5143783;27;20385;-75
2022/11/09 08:33:34;;;;;;;9.00;1.85;;;11.50;99.90;;;;;;5123631;27;20031;-76
2022/11/09 08:36:00;;;;;;;11.45;1.88;;;12.20;99.90;;;;;;5125276;27;20050;-75
2022/11/09 08:38:25;;;;;;;9.00;2.10;;;11.60;99.90;;;;;;5122246;27;20383;-75
2022/11/09 08:40:57;;;;;;;10.57;1.60;;;11.60;99.90;;;;;;5143608;27;20109;-75
2022/11/09 08:43:22;;;;;;;12.25;1.67;;;11.60;99.90;;;;;;5106614;27;20035;-75
2022/11/09 08:45:48;;;;;;;9.48;2.50;;;11.60;99.90;;;;;;5124071;27;20042;-75
2022/11/09 08:48:13;;;;;;;10.90;2.25;;;12.70;99.90;;;;;;5143102;27;20035;-75
2022/11/09 08:50:39;;;;;;;11.07;2.53;;;11.70;99.90;;;;;;5124555;27;20035;-75
2022/11/09 08:53:06;;;;;;;10.48;2.13;;;11.80;99.90;;;;;;5123641;27;20077;-75
2022/11/09 08:55:33;;;;;;;11.13;2.45;;;12.90;99.90;;;;;;5140849;27;20505;-75
2022/11/09 08:58:01;;;;;;;11.65;1.77;;;11.90;99.90;;;;;;5107825;27;20474;-75
2022/11/09 09:00:27;;;;;;;18.13;3.35;;;11.90;99.90;;;;;;5122144;27;20498;-75
2022/11/09 09:02:53;;;;;;;9.32;2.45;;;11.90;99.90;;;;;;5143254;27;20082;-75
2022/11/09 09:05:19;;;;;;;10.38;2.28;;;12.00;99.90;;;;;;5124360;27;20031;-75
2022/11/09 09:07:44;;;;;;;12.57;2.30;;;12.00;99.90;;;;;;5122325;27;20486;-76
2022/11/09 09:10:10;;;;;;;7.50;2.33;;;12.00;99.90;;;;;;5120810;27;20027;-75
2022/11/09 09:12:36;;;;;;;11.93;2.00;;;12.00;99.90;;;;;;5129496;27;20389;-75
2022/11/09 09:15:02;;;;;;;14.07;3.08;;;12.10;99.90;;;;;;5146717;27;20500;-75
2022/11/09 09:17:28;;;;;;;12.23;2.17;;;12.10;99.90;;;;;;5105885;27;20064;-75
2022/11/09 09:19:54;;;;;;;13.05;2.67;;;12.10;99.90;;;;;;5125033;27;20541;-75
2022/11/09 09:22:19;;;;;;;12.57;2.78;;;12.20;99.90;;;;;;5141703;27;20042;-75
2022/11/09 09:24:45;;;;;;;11.05;2.20;;;12.20;99.90;;;;;;5143232;27;20038;-75
2022/11/09 09:27:11;;;;;;;10.40;2.45;;;12.30;99.90;;;;;;5124620;27;20090;-75
2022/11/09 09:29:36;;;;;;;12.65;2.47;;;12.30;99.90;;;;;;5139369;27;20039;-75
2022/11/09 09:32:02;;;;;;;8.52;2.25;;;13.10;99.90;;;;;;5142566;27;20142;-75
2022/11/09 09:34:28;;;;;;;13.82;2.33;;;12.40;99.90;;;;;;5139823;27;20051;-76
2022/11/09 09:36:53;;;;;;;14.90;2.30;;;12.40;99.90;;;;;;5125071;27;20051;-75
2022/11/09 09:39:19;;;;;;;10.48;2.28;;;12.60;99.90;;;;;;5146944;27;20420;-75
2022/11/09 09:41:51;;;;;;;9.40;2.10;;;12.60;99.90;;;;;;5119991;27;20038;-75
2022/11/09 09:44:31;;;;;;;6.68;2.03;;;12.50;99.90;;;;;;5103521;28;20508;-75
2022/11/09 09:47:23;;;;;;;14.35;2.38;;;12.50;99.90;;;;;;5139174;27;20363;-75
2022/11/09 09:50:03;;;;;;;11.90;1.90;;;12.50;99.90;;;;;;5134951;27;20050;-75
2022/11/09 09:52:50;;;;;;;9.63;1.98;;;12.50;99.90;;;;;;5122363;27;20031;-75
2022/11/09 09:55:32;;;;;;;8.35;1.88;;;12.70;99.90;;;;;;5106346;27;20049;-75
2022/11/09 09:58:15;;;;;;;11.38;2.72;;;13.70;99.90;;;;;;5121712;27;20097;-75
2022/11/09 10:00:42;;;;;;;12.13;1.95;;;12.70;99.90;;;;;;5096073;27;20066;-75
2022/11/09 10:03:16;;;;;;;7.85;2.25;;;12.80;99.90;;;;;;5123264;27;20042;-75
2022/11/09 10:06:00;;;;;;;15.65;2.63;;;12.80;99.90;;;;;;5121513;27;20039;-75
2022/11/09 10:08:49;;;;;;;8.15;1.80;;;12.80;99.90;;;;;;5127134;27;20532;-75
2022/11/09 10:11:29;;;;;;;8.93;2.17;;;12.80;99.90;;;;;;5121366;27;20137;-75
2022/11/09 10:14:03;;;;;;;9.95;2.38;;;13.70;99.90;;;;;;5102685;28;20163;-75
2022/11/09 10:16:41;;;;;;;10.35;2.95;;;12.90;99.90;;;;;;5138889;27;20043;-75
2022/11/09 10:19:34;;;;;;;11.55;3.60;;;13.00;99.90;;;;;;5110391;27;20043;-75
2022/11/09 10:22:22;;;;;;;14.38;3.15;;;13.00;99.90;;;;;;5123559;27;20043;-75
2022/11/09 10:25:13;;;;;;;14.82;3.75;;;13.00;99.90;;;;;;5126097;27;20126;-75
2022/11/09 10:28:07;;;;;;;13.63;2.42;;;13.00;99.90;;;;;;5126288;27;20466;-76
2022/11/09 10:30:33;;;;;;;11.60;2.80;;;13.00;99.90;;;;;;5149800;27;20050;-75
2022/11/09 10:33:12;;;;;;;12.98;2.90;;;13.00;99.90;;;;;;5141410;27;20269;-75
2022/11/09 10:36:10;;;;;;;17.63;2.83;;;13.00;99.90;;;;;;5146994;27;20058;-75
2022/11/09 10:38:42;;;;;;;16.15;2.92;;;13.00;99.90;;;;;;5108778;27;20123;-76
2022/11/09 10:41:17;;;;;;;10.00;2.25;;;13.00;99.90;;;;;;5145699;27;20049;-75
2022/11/09 10:43:43;;;;;;;7.40;2.65;;;12.90;99.90;;;;;;5125602;27;20107;-76
2022/11/09 10:46:08;;;;;;;14.50;3.17;;;12.90;99.90;;;;;;5127013;27;20031;-75
2022/11/09 10:48:38;;;;;;;19.40;3.75;;;13.00;99.90;;;;;;5126565;27;20050;-75
2022/11/09 10:51:05;;;;;;;10.30;3.13;;;12.90;99.90;;;;;;5108386;27;20031;-76
2022/11/09 10:53:32;;;;;;;14.98;2.95;;;12.90;99.90;;;;;;5126859;27;20106;-76
2022/11/09 10:56:14;;;;;;;12.75;3.65;;;13.20;99.90;;;;;;5143671;27;20034;-75
2022/11/09 10:58:50;;;;;;;10.85;3.13;;;13.40;99.90;;;;;;5143987;27;20105;-75
2022/11/09 11:01:25;;;;;;;11.15;2.80;;;12.90;99.90;;;;;;5146579;27;20066;-75
2022/11/09 11:03:52;;;;;;;9.25;2.25;;;13.00;99.90;;;;;;5124573;27;20035;-75
2022/11/09 11:06:21;;;;;;;16.42;2.60;;;13.90;99.90;;;;;;5114500;27;20102;-75
2022/11/09 11:08:56;;;;;;;14.75;2.97;;;13.00;99.90;;;;;;5133618;27;20050;-75
2022/11/09 11:11:27;;;;;;;12.70;3.03;;;13.00;99.90;;;;;;5122917;27;20095;-76
2022/11/09 11:14:27;;;;;;;12.88;2.47;;;13.00;99.90;;;;;;5129807;27;20035;-76
2022/11/09 11:16:54;;;;;;;14.93;2.90;;;13.00;99.90;;;;;;5143826;27;20062;-75
2022/11/09 11:19:40;;;;;;;17.35;6.82;;;13.00;99.90;;;;;;5145680;27;20097;-76
2022/11/09 11:22:12;;;;;;;10.95;2.72;;;13.00;99.90;;;;;;5120766;27;20057;-75
2022/11/09 11:24:46;;;;;;;16.08;2.25;;;13.00;99.90;;;;;;5125807;27;20081;-77
2022/11/09 11:27:39;;;;;;;10.68;2.55;;;13.00;99.90;;;;;;5144143;27;20039;-75
2022/11/09 11:30:11;;;;;;;9.70;2.20;;;13.00;99.90;;;;;;5107146;27;20047;-75
2022/11/09 11:32:37;;;;;;;10.95;2.75;;;13.00;99.90;;;;;;5125290;27;20117;-75
2022/11/09 11:35:10;;;;;;;10.02;2.03;;;13.00;99.90;;;;;;5123941;27;20176;-76
2022/11/09 11:38:08;;;;;;;11.98;2.95;;;13.00;99.90;;;;;;5106129;27;20067;-75
2022/11/09 11:40:42;;;;;;;7.22;1.85;;;13.00;99.90;;;;;;5070334;27;20552;-75
2022/11/09 11:43:27;;;;;;;;;;;13.00;99.90;;;;;;5127668;27;20034;-75
2022/11/09 11:46:01;;;;;;;13.40;1.73;;;13.00;99.90;;;;;;5124335;27;19931;-75
2022/11/09 11:48:30;;;;;;;;;;;13.00;99.90;;;;;;5109207;27;20134;-75
2022/11/09 11:51:18;;;;;;;11.75;2.85;;;13.00;99.90;;;;;;5107610;27;20420;-76
2022/11/09 11:54:00;;;;;;;10.65;2.17;;;13.00;99.90;;;;;;5125539;27;20470;-75
2022/11/09 11:56:44;;;;;;;12.23;2.60;;;13.10;99.90;;;;;;5142577;27;20508;-77
2022/11/09 12:00:07;;;;;;;10.20;2.10;;;13.10;99.90;;;;;;5122942;27;20042;-77
2022/11/09 12:02:54;;;;;;;12.82;2.40;;;13.10;99.90;;;;;;5014054;28;20124;-76
2022/11/09 12:05:39;;;;;;;15.55;2.67;;;13.10;99.90;;;;;;5026373;28;20517;-76
2022/11/09 12:08:20;;;;;;;12.65;2.70;;;13.10;99.90;;;;;;5113767;27;20055;-76
2022/11/09 12:10:53;;;;;;;10.35;2.92;;;13.10;99.90;;;;;;5122422;27;20239;-76
2022/11/09 12:13:37;;;;;;;14.75;3.05;;;13.00;99.90;;;;;;5145179;27;20126;-76
2022/11/09 12:16:44;;;;;;;11.52;2.83;;;13.00;99.90;;;;;;5143171;27;20050;-76
2022/11/09 12:19:33;;;;;;;10.05;2.30;;;13.00;99.90;;;;;;5090943;27;20094;-76
2022/11/09 12:22:17;;;;;;;13.65;2.50;;;13.00;99.90;;;;;;5142926;27;20039;-76
2022/11/09 12:25:08;;;;;;;12.85;3.00;;;13.00;99.90;;;;;;5125287;27;20047;-76
2022/11/09 12:27:44;;;;;;;10.25;2.70;;;13.00;99.90;;;;;;5140625;27;20172;-76
2022/11/09 12:30:20;;;;;;;11.27;2.47;;;13.00;99.90;;;;;;5139484;27;20043;-76
2022/11/09 12:33:11;;;;;;;11.27;2.85;;;13.00;99.90;;;;;;5140350;27;20126;-75
2022/11/09 12:35:46;;;;;;;9.98;2.40;;;13.10;99.90;;;;;;5146236;27;20055;-75
2022/11/09 12:38:24;;;;;;;13.55;2.15;;;13.10;99.90;;;;;;5118956;27;20089;-75
2022/11/09 12:40:57;;;;;;;13.18;3.03;;;13.60;99.90;;;;;;5123625;27;20031;-75
2022/11/09 12:43:57;;;;;;;10.48;2.40;;;13.10;99.90;;;;;;5142712;27;20062;-76
2022/11/09 12:46:29;;;;;;;12.75;3.00;;;13.10;99.90;;;;;;5142975;27;20047;-75
2022/11/09 12:49:00;;;;;;;14.38;3.22;;;13.10;99.90;;;;;;5106906;27;20038;-75
2022/11/09 12:51:27;;;;;;;10.57;2.85;;;13.10;99.90;;;;;;5124547;27;20052;-75
2022/11/09 12:53:54;;;;;;;13.60;3.63;;;13.10;99.90;;;;;;5107254;27;20396;-75
2022/11/09 12:56:33;;;;;;;13.98;3.03;;;13.00;99.90;;;;;;5125452;27;20427;-79
2022/11/09 12:59:26;;;;;;;11.80;2.85;;;13.00;99.90;;;;;;5105947;27;20031;-76